Wednesday, April 25, 2018, 1:04 AM EDT
Back to Local

KFIG, Clearfield-lawrence Airport

Location: Clearfield, PA, United States Lat: 41.05
Local Time: 1:04 AM EDT ( 5:04 GMT) Lon: -78.417
Time Zone: US/Eastern Elev: 1515 ft

Show me the last for .
Show Decoded

2018-04-25 00:30 METAR KFIG 250430Z AUTO 04007KT 8SM -RA FEW004 OVC013 09/08 A3000 RMK AO2 P0001
                 T00890083 =
2018-04-25 00:11 METAR KFIG 250411Z AUTO 05005KT 9SM -RA FEW005 FEW009 OVC017 09/08 A3000 RMK AO2
                 P0000 T00890083 =
2018-04-24 23:54 METAR KFIG 250354Z AUTO 05005KT 9SM -RA BKN018 OVC024 09/08 A3001 RMK AO2 SLP166
                 P0001 T00890083 =
2018-04-24 23:35 METAR KFIG 250335Z AUTO 04005KT 8SM -RA FEW018 BKN025 OVC065 09/08 A3002 RMK AO2
                 P0001 T00890083 =
2018-04-24 22:54 METAR KFIG 250254Z AUTO 07009KT 8SM -RA FEW018 BKN070 OVC085 09/08 A3004 RMK AO2
                 SLP176 P0003 60009 T00890083 58010 =
2018-04-24 21:54 METAR KFIG 250154Z AUTO 06007KT 8SM -RA BKN022 BKN032 OVC050 09/08 A3007 RMK AO2
                 SLP186 P0004 T00940083 =
2018-04-24 20:54 METAR KFIG 250054Z AUTO 07006KT 8SM -RA OVC060 09/08 A3008 RMK AO2 SLP189 P0002
                 T00940083 =
2018-04-24 19:54 METAR KFIG 242354Z AUTO 09005KT 7SM -RA BKN046 OVC060 10/08 A3007 RMK AO2 SLP188
                 P0002 60014 T01000083 10122 20100 58006 =
2018-04-24 18:54 METAR KFIG 242254Z AUTO 10004KT 10SM -RA SCT047 OVC055 11/09 A3008 RMK AO2
                 SLP191 P0003 T01060089 =
2018-04-24 17:54 METAR KFIG 242154Z AUTO VRB03KT 9SM -RA SCT047 BKN055 OVC070 11/09 A3009 RMK AO2
                 SLP194 P0002 T01110089 =
2018-04-24 16:54 METAR KFIG 242054Z AUTO 06004KT 7SM -RA SCT049 OVC060 11/09 A3009 RMK AO2 SLP193
                 P0004 60007 T01110094 58026 =
2018-04-24 15:54 METAR KFIG 241954Z AUTO 08004KT 7SM -RA SCT038 BKN047 OVC060 11/08 A3012 RMK AO2
                 SLP204 P0002 T01110083 =
2018-04-24 14:54 METAR KFIG 241854Z AUTO 15007KT 10SM -RA OVC036 12/07 A3015 RMK AO2 SLP213 P0001
                 T01170072 =
2018-04-24 13:54 METAR KFIG 241754Z AUTO VRB05G15KT 10SM -RA BKN034 OVC055 12/07 A3017 RMK AO2
                 SLP220 P0001 60002 T01170067 10122 20089 58018 =
2018-04-24 12:54 METAR KFIG 241654Z AUTO 15004KT 10SM -RA BKN033 BKN050 OVC060 11/07 A3020 RMK
                 AO2 RAB09 SLP230 P0001 T01110067 =
2018-04-24 11:54 METAR KFIG 241554Z AUTO 14006KT 10SM BKN032 OVC070 12/04 A3022 RMK AO2 RAB04E13
                 SLP235 P0000 T01220044 =
2018-04-24 10:54 METAR KFIG 241454Z AUTO VRB04KT 10SM BKN030 OVC039 12/03 A3023 RMK AO2 SLP238
                 T01170033 58011 =
2018-04-24 09:54 METAR KFIG 241354Z AUTO VRB05KT 10SM OVC033 11/03 A3024 RMK AO2 SLP243 T01110028
                 =
2018-04-24 08:54 METAR KFIG 241254Z AUTO 10007KT 10SM BKN035 OVC110 11/01 A3026 RMK AO2 SLP247
                 T01060006 =
2018-04-24 07:54 METAR KFIG 241154Z AUTO 05005KT 10SM OVC095 09/01 A3026 RMK AO2 SLP250 60001
                 70001 T00890011 10117 20078 58002 =
2018-04-24 06:54 METAR KFIG 241054Z AUTO 09004KT 10SM BKN100 OVC110 08/00 A3027 RMK AO2 RAE16
                 SLP252 P0000 T00830000 =
2018-04-24 05:54 METAR KFIG 240954Z AUTO 13006KT 10SM -RA OVC065 08/02 A3027 RMK AO2 SLP252 P0001
                 T00780017 =
2018-04-24 04:54 METAR KFIG 240854Z AUTO VRB06KT 10SM -RA OVC070 11/M01 A3027 RMK AO2 RAB45
                 SLP249 P0000 60000 T01061011 55002 =
2018-04-24 03:54 METAR KFIG 240754Z AUTO VRB03KT 10SM FEW080 11/01 A3027 RMK AO2 SLP248 T01060011
                 =
2018-04-24 02:54 METAR KFIG 240654Z AUTO 13004KT 10SM CLR 11/04 A3027 RMK AO2 SLP248 T01110039 =
2018-04-24 01:54 METAR KFIG 240554Z AUTO 14007KT 10SM CLR 12/04 A3028 RMK AO2 SLP251 T01170039
                 10161 20111 58004 =

Support USWX by starting your Amazon purchase here.